sensor_id;sensor_type;location;lat;lon;timestamp;temperature;humidity
52709;DHT22;38606;52.986;6.980;2023-07-09T00:00:55;22.00;99.90
52709;DHT22;38606;52.986;6.980;2023-07-09T00:03:22;22.20;99.90
52709;DHT22;38606;52.986;6.980;2023-07-09T00:05:49;22.00;99.90
52709;DHT22;38606;52.986;6.980;2023-07-09T00:08:25;21.70;99.90
52709;DHT22;38606;52.986;6.980;2023-07-09T00:10:56;21.90;99.90
52709;DHT22;38606;52.986;6.980;2023-07-09T00:13:24;22.10;99.90
52709;DHT22;38606;52.986;6.980;2023-07-09T00:15:50;22.00;99.90
52709;DHT22;38606;52.986;6.980;2023-07-09T00:18:16;22.10;99.90
52709;DHT22;38606;52.986;6.980;2023-07-09T00:20:42;22.10;99.90
52709;DHT22;38606;52.986;6.980;2023-07-09T00:23:10;22.10;99.90
52709;DHT22;38606;52.986;6.980;2023-07-09T00:25:42;21.70;99.90
52709;DHT22;38606;52.986;6.980;2023-07-09T00:28:17;21.70;99.90
52709;DHT22;38606;52.986;6.980;2023-07-09T00:30:47;21.80;99.90
52709;DHT22;38606;52.986;6.980;2023-07-09T00:33:14;21.80;99.90
52709;DHT22;38606;52.986;6.980;2023-07-09T00:35:45;21.80;99.90
52709;DHT22;38606;52.986;6.980;2023-07-09T00:38:18;21.90;99.90
52709;DHT22;38606;52.986;6.980;2023-07-09T00:40:56;21.70;99.90
52709;DHT22;38606;52.986;6.980;2023-07-09T00:43:22;21.80;99.90
52709;DHT22;38606;52.986;6.980;2023-07-09T00:48:40;22.00;99.90
52709;DHT22;38606;52.986;6.980;2023-07-09T00:51:12;21.50;99.90
52709;DHT22;38606;52.986;6.980;2023-07-09T00:53:39;21.50;99.90
52709;DHT22;38606;52.986;6.980;2023-07-09T00:56:13;21.40;99.90
52709;DHT22;38606;52.986;6.980;2023-07-09T00:58:42;21.50;99.90
52709;DHT22;38606;52.986;6.980;2023-07-09T01:01:11;21.50;99.90
52709;DHT22;38606;52.986;6.980;2023-07-09T01:03:47;21.60;99.90
52709;DHT22;38606;52.986;6.980;2023-07-09T01:06:16;21.60;99.90
52709;DHT22;38606;52.986;6.980;2023-07-09T01:08:45;21.40;99.90
52709;DHT22;38606;52.986;6.980;2023-07-09T01:11:18;21.30;99.90
52709;DHT22;38606;52.986;6.980;2023-07-09T01:13:57;21.30;99.90
52709;DHT22;38606;52.986;6.980;2023-07-09T01:16:26;21.50;99.90
52709;DHT22;38606;52.986;6.980;2023-07-09T01:18:53;21.40;99.90
52709;DHT22;38606;52.986;6.980;2023-07-09T01:21:19;21.20;99.90
52709;DHT22;38606;52.986;6.980;2023-07-09T01:23:47;21.10;99.90
52709;DHT22;38606;52.986;6.980;2023-07-09T01:26:19;20.80;99.90
52709;DHT22;38606;52.986;6.980;2023-07-09T01:28:45;21.10;99.90
52709;DHT22;38606;52.986;6.980;2023-07-09T01:31:13;20.90;99.90
52709;DHT22;38606;52.986;6.980;2023-07-09T01:33:41;21.10;99.90
52709;DHT22;38606;52.986;6.980;2023-07-09T01:36:20;21.00;99.90
52709;DHT22;38606;52.986;6.980;2023-07-09T01:38:50;21.00;99.90
52709;DHT22;38606;52.986;6.980;2023-07-09T01:41:16;21.00;99.90
52709;DHT22;38606;52.986;6.980;2023-07-09T01:43:43;21.20;99.90
52709;DHT22;38606;52.986;6.980;2023-07-09T01:46:11;21.00;99.90
52709;DHT22;38606;52.986;6.980;2023-07-09T01:48:38;21.10;99.90
52709;DHT22;38606;52.986;6.980;2023-07-09T01:51:09;21.00;99.90
52709;DHT22;38606;52.986;6.980;2023-07-09T01:53:36;20.80;99.90
52709;DHT22;38606;52.986;6.980;2023-07-09T01:56:03;20.90;99.90
52709;DHT22;38606;52.986;6.980;2023-07-09T01:58:29;20.80;99.90
52709;DHT22;38606;52.986;6.980;2023-07-09T02:00:58;20.70;99.90
52709;DHT22;38606;52.986;6.980;2023-07-09T02:03:24;20.80;99.90
52709;DHT22;38606;52.986;6.980;2023-07-09T02:05:53;20.70;99.90
52709;DHT22;38606;52.986;6.980;2023-07-09T02:08:19;20.40;99.90
52709;DHT22;38606;52.986;6.980;2023-07-09T02:10:47;20.50;99.90
52709;DHT22;38606;52.986;6.980;2023-07-09T02:13:13;20.40;99.90
52709;DHT22;38606;52.986;6.980;2023-07-09T02:15:39;20.70;99.90
52709;DHT22;38606;52.986;6.980;2023-07-09T02:18:09;20.50;99.90
52709;DHT22;38606;52.986;6.980;2023-07-09T02:20:35;20.50;99.90
52709;DHT22;38606;52.986;6.980;2023-07-09T02:23:02;20.30;99.90
52709;DHT22;38606;52.986;6.980;2023-07-09T02:25:28;20.30;99.90
52709;DHT22;38606;52.986;6.980;2023-07-09T02:27:53;20.30;99.90
52709;DHT22;38606;52.986;6.980;2023-07-09T02:30:19;20.50;99.90
52709;DHT22;38606;52.986;6.980;2023-07-09T02:32:45;20.40;99.90
52709;DHT22;38606;52.986;6.980;2023-07-09T02:35:10;20.10;99.90
52709;DHT22;38606;52.986;6.980;2023-07-09T02:37:36;20.20;99.90
52709;DHT22;38606;52.986;6.980;2023-07-09T02:40:03;20.20;99.90
52709;DHT22;38606;52.986;6.980;2023-07-09T02:42:29;20.20;99.90
52709;DHT22;38606;52.986;6.980;2023-07-09T02:44:55;20.20;99.90
52709;DHT22;38606;52.986;6.980;2023-07-09T02:47:20;20.30;99.90
52709;DHT22;38606;52.986;6.980;2023-07-09T02:49:46;20.20;99.90
52709;DHT22;38606;52.986;6.980;2023-07-09T02:52:12;19.80;99.90
52709;DHT22;38606;52.986;6.980;2023-07-09T02:54:38;20.00;99.90
52709;DHT22;38606;52.986;6.980;2023-07-09T02:57:04;19.80;99.90
52709;DHT22;38606;52.986;6.980;2023-07-09T02:59:30;19.90;99.90
52709;DHT22;38606;52.986;6.980;2023-07-09T03:01:56;19.90;99.90
52709;DHT22;38606;52.986;6.980;2023-07-09T03:04:22;19.70;99.90
52709;DHT22;38606;52.986;6.980;2023-07-09T03:06:48;20.00;99.90
52709;DHT22;38606;52.986;6.980;2023-07-09T03:09:14;19.70;99.90
52709;DHT22;38606;52.986;6.980;2023-07-09T03:11:40;20.00;99.90
52709;DHT22;38606;52.986;6.980;2023-07-09T03:14:05;19.70;99.90
52709;DHT22;38606;52.986;6.980;2023-07-09T03:16:33;19.80;99.90
52709;DHT22;38606;52.986;6.980;2023-07-09T03:18:59;19.70;99.90
52709;DHT22;38606;52.986;6.980;2023-07-09T03:21:26;19.60;99.90
52709;DHT22;38606;52.986;6.980;2023-07-09T03:23:53;19.50;99.90
52709;DHT22;38606;52.986;6.980;2023-07-09T03:26:19;19.30;99.90
52709;DHT22;38606;52.986;6.980;2023-07-09T03:28:45;19.40;99.90
52709;DHT22;38606;52.986;6.980;2023-07-09T03:31:11;19.80;99.90
52709;DHT22;38606;52.986;6.980;2023-07-09T03:33:37;19.50;99.90
52709;DHT22;38606;52.986;6.980;2023-07-09T03:36:03;19.40;99.90
52709;DHT22;38606;52.986;6.980;2023-07-09T03:38:30;19.60;99.90
52709;DHT22;38606;52.986;6.980;2023-07-09T03:40:56;19.40;99.90
52709;DHT22;38606;52.986;6.980;2023-07-09T03:43:22;19.50;99.90
52709;DHT22;38606;52.986;6.980;2023-07-09T03:45:49;19.40;99.90
52709;DHT22;38606;52.986;6.980;2023-07-09T03:48:17;19.10;99.90
52709;DHT22;38606;52.986;6.980;2023-07-09T03:50:47;19.40;99.90
52709;DHT22;38606;52.986;6.980;2023-07-09T03:53:14;19.50;99.90
52709;DHT22;38606;52.986;6.980;2023-07-09T03:55:40;19.20;99.90
52709;DHT22;38606;52.986;6.980;2023-07-09T03:58:06;19.50;99.90
52709;DHT22;38606;52.986;6.980;2023-07-09T04:00:32;19.60;99.90
52709;DHT22;38606;52.986;6.980;2023-07-09T04:02:58;19.50;99.90
52709;DHT22;38606;52.986;6.980;2023-07-09T04:05:25;19.40;99.90
52709;DHT22;38606;52.986;6.980;2023-07-09T04:07:51;19.70;99.90
52709;DHT22;38606;52.986;6.980;2023-07-09T04:10:17;19.50;99.90
52709;DHT22;38606;52.986;6.980;2023-07-09T04:12:43;19.70;99.90
52709;DHT22;38606;52.986;6.980;2023-07-09T04:15:09;19.40;99.90
52709;DHT22;38606;52.986;6.980;2023-07-09T04:17:36;19.40;99.90
52709;DHT22;38606;52.986;6.980;2023-07-09T04:20:02;19.70;99.90
52709;DHT22;38606;52.986;6.980;2023-07-09T04:22:31;19.70;99.90
52709;DHT22;38606;52.986;6.980;2023-07-09T04:24:57;20.00;99.90
52709;DHT22;38606;52.986;6.980;2023-07-09T04:27:23;19.80;99.90
52709;DHT22;38606;52.986;6.980;2023-07-09T04:29:53;19.80;99.90
52709;DHT22;38606;52.986;6.980;2023-07-09T04:32:19;19.70;99.90
52709;DHT22;38606;52.986;6.980;2023-07-09T04:34:45;20.20;99.90
52709;DHT22;38606;52.986;6.980;2023-07-09T04:37:10;20.10;99.90
52709;DHT22;38606;52.986;6.980;2023-07-09T04:39:39;20.10;99.90
52709;DHT22;38606;52.986;6.980;2023-07-09T04:42:06;20.40;99.90
52709;DHT22;38606;52.986;6.980;2023-07-09T04:44:36;20.20;99.90
52709;DHT22;38606;52.986;6.980;2023-07-09T04:47:01;20.30;99.90
52709;DHT22;38606;52.986;6.980;2023-07-09T04:49:27;20.30;99.90
52709;DHT22;38606;52.986;6.980;2023-07-09T04:51:53;20.20;99.90
52709;DHT22;38606;52.986;6.980;2023-07-09T04:54:19;20.30;99.90
52709;DHT22;38606;52.986;6.980;2023-07-09T04:56:48;20.90;99.90
52709;DHT22;38606;52.986;6.980;2023-07-09T04:59:14;20.60;99.90
52709;DHT22;38606;52.986;6.980;2023-07-09T05:01:40;21.00;99.90
52709;DHT22;38606;52.986;6.980;2023-07-09T05:04:06;20.10;99.90
52709;DHT22;38606;52.986;6.980;2023-07-09T05:06:33;21.10;99.90
52709;DHT22;38606;52.986;6.980;2023-07-09T05:08:58;21.20;99.90
52709;DHT22;38606;52.986;6.980;2023-07-09T05:11:24;21.00;99.90
52709;DHT22;38606;52.986;6.980;2023-07-09T05:13:50;21.20;99.90
52709;DHT22;38606;52.986;6.980;2023-07-09T05:16:16;21.30;99.90
52709;DHT22;38606;52.986;6.980;2023-07-09T05:18:42;21.40;99.90
52709;DHT22;38606;52.986;6.980;2023-07-09T05:21:08;21.50;99.90
52709;DHT22;38606;52.986;6.980;2023-07-09T05:23:34;21.50;99.90
52709;DHT22;38606;52.986;6.980;2023-07-09T05:26:01;21.50;99.90
52709;DHT22;38606;52.986;6.980;2023-07-09T05:28:28;22.10;99.90
52709;DHT22;38606;52.986;6.980;2023-07-09T05:30:54;21.90;99.90
52709;DHT22;38606;52.986;6.980;2023-07-09T05:33:20;22.30;99.90
52709;DHT22;38606;52.986;6.980;2023-07-09T05:35:46;22.40;99.90
52709;DHT22;38606;52.986;6.980;2023-07-09T05:38:13;22.50;99.90
52709;DHT22;38606;52.986;6.980;2023-07-09T05:40:39;22.80;99.90
52709;DHT22;38606;52.986;6.980;2023-07-09T05:43:05;22.60;99.90
52709;DHT22;38606;52.986;6.980;2023-07-09T05:45:31;23.00;99.90
52709;DHT22;38606;52.986;6.980;2023-07-09T05:47:58;23.00;99.90
52709;DHT22;38606;52.986;6.980;2023-07-09T05:50:24;23.00;99.90
52709;DHT22;38606;52.986;6.980;2023-07-09T05:52:50;22.90;99.90
52709;DHT22;38606;52.986;6.980;2023-07-09T05:55:16;23.00;99.90
52709;DHT22;38606;52.986;6.980;2023-07-09T05:57:42;23.10;99.90
52709;DHT22;38606;52.986;6.980;2023-07-09T06:00:08;23.10;99.90
52709;DHT22;38606;52.986;6.980;2023-07-09T06:02:34;23.50;99.90
52709;DHT22;38606;52.986;6.980;2023-07-09T06:05:00;23.50;99.90
52709;DHT22;38606;52.986;6.980;2023-07-09T06:07:25;23.70;99.90
52709;DHT22;38606;52.986;6.980;2023-07-09T06:09:51;23.70;99.90
52709;DHT22;38606;52.986;6.980;2023-07-09T06:12:18;23.80;99.90
52709;DHT22;38606;52.986;6.980;2023-07-09T06:14:45;23.80;99.90
52709;DHT22;38606;52.986;6.980;2023-07-09T06:17:11;23.90;99.90
52709;DHT22;38606;52.986;6.980;2023-07-09T06:19:37;23.80;99.90
52709;DHT22;38606;52.986;6.980;2023-07-09T06:22:04;24.20;99.90
52709;DHT22;38606;52.986;6.980;2023-07-09T06:24:29;24.00;99.90
52709;DHT22;38606;52.986;6.980;2023-07-09T06:26:55;24.00;99.90
52709;DHT22;38606;52.986;6.980;2023-07-09T06:29:21;24.30;99.90
52709;DHT22;38606;52.986;6.980;2023-07-09T06:31:47;24.50;99.90
52709;DHT22;38606;52.986;6.980;2023-07-09T06:34:12;24.20;99.90
52709;DHT22;38606;52.986;6.980;2023-07-09T06:36:38;24.50;99.90
52709;DHT22;38606;52.986;6.980;2023-07-09T06:39:04;24.40;99.90
52709;DHT22;38606;52.986;6.980;2023-07-09T06:41:31;24.80;99.90
52709;DHT22;38606;52.986;6.980;2023-07-09T06:43:58;24.70;99.90
52709;DHT22;38606;52.986;6.980;2023-07-09T06:46:24;24.90;99.90
52709;DHT22;38606;52.986;6.980;2023-07-09T06:48:49;24.90;99.90
52709;DHT22;38606;52.986;6.980;2023-07-09T06:51:15;25.00;99.90
52709;DHT22;38606;52.986;6.980;2023-07-09T06:53:42;25.00;99.90
52709;DHT22;38606;52.986;6.980;2023-07-09T06:56:09;25.10;99.90
52709;DHT22;38606;52.986;6.980;2023-07-09T06:58:36;25.00;99.90
52709;DHT22;38606;52.986;6.980;2023-07-09T07:01:04;25.20;99.90
52709;DHT22;38606;52.986;6.980;2023-07-09T07:03:31;25.40;99.90
52709;DHT22;38606;52.986;6.980;2023-07-09T07:05:57;25.60;99.90
52709;DHT22;38606;52.986;6.980;2023-07-09T07:08:25;25.50;99.90
52709;DHT22;38606;52.986;6.980;2023-07-09T07:10:58;25.70;99.90
52709;DHT22;38606;52.986;6.980;2023-07-09T07:13:45;26.00;99.90
52709;DHT22;38606;52.986;6.980;2023-07-09T07:16:13;25.80;99.90
52709;DHT22;38606;52.986;6.980;2023-07-09T07:18:39;26.30;99.90
52709;DHT22;38606;52.986;6.980;2023-07-09T07:21:05;26.20;99.90
52709;DHT22;38606;52.986;6.980;2023-07-09T07:23:31;26.40;99.90
52709;DHT22;38606;52.986;6.980;2023-07-09T07:25:58;26.50;99.90
52709;DHT22;38606;52.986;6.980;2023-07-09T07:28:24;26.50;99.90
52709;DHT22;38606;52.986;6.980;2023-07-09T07:31:05;26.50;99.90
52709;DHT22;38606;52.986;6.980;2023-07-09T07:33:33;26.60;99.90
52709;DHT22;38606;52.986;6.980;2023-07-09T07:35:59;26.80;99.90
52709;DHT22;38606;52.986;6.980;2023-07-09T07:38:25;26.90;99.90
52709;DHT22;38606;52.986;6.980;2023-07-09T07:40:50;27.20;99.90
52709;DHT22;38606;52.986;6.980;2023-07-09T07:43:16;27.20;99.90
52709;DHT22;38606;52.986;6.980;2023-07-09T07:45:42;27.30;99.90
52709;DHT22;38606;52.986;6.980;2023-07-09T07:48:08;27.60;99.90
52709;DHT22;38606;52.986;6.980;2023-07-09T07:50:34;27.30;99.90
52709;DHT22;38606;52.986;6.980;2023-07-09T07:53:01;27.70;99.90
52709;DHT22;38606;52.986;6.980;2023-07-09T07:55:27;28.00;99.90
52709;DHT22;38606;52.986;6.980;2023-07-09T07:57:53;27.80;99.90
52709;DHT22;38606;52.986;6.980;2023-07-09T08:00:19;27.90;99.90
52709;DHT22;38606;52.986;6.980;2023-07-09T08:02:45;28.00;99.90
52709;DHT22;38606;52.986;6.980;2023-07-09T08:05:10;28.00;99.90
52709;DHT22;38606;52.986;6.980;2023-07-09T08:07:36;28.30;99.90
52709;DHT22;38606;52.986;6.980;2023-07-09T08:10:02;28.30;99.90
52709;DHT22;38606;52.986;6.980;2023-07-09T08:12:28;28.60;99.90
52709;DHT22;38606;52.986;6.980;2023-07-09T08:14:53;28.70;99.90
52709;DHT22;38606;52.986;6.980;2023-07-09T08:17:19;28.90;99.90
52709;DHT22;38606;52.986;6.980;2023-07-09T08:19:46;28.80;99.90
52709;DHT22;38606;52.986;6.980;2023-07-09T08:22:13;29.20;99.90
52709;DHT22;38606;52.986;6.980;2023-07-09T08:24:39;29.20;99.90
52709;DHT22;38606;52.986;6.980;2023-07-09T08:27:07;29.20;99.90
52709;DHT22;38606;52.986;6.980;2023-07-09T08:29:33;29.30;99.90
52709;DHT22;38606;52.986;6.980;2023-07-09T08:31:58;29.30;99.90
52709;DHT22;38606;52.986;6.980;2023-07-09T08:34:24;29.50;99.90
52709;DHT22;38606;52.986;6.980;2023-07-09T08:36:50;29.60;99.90
52709;DHT22;38606;52.986;6.980;2023-07-09T08:39:16;30.10;99.90
52709;DHT22;38606;52.986;6.980;2023-07-09T08:41:43;29.80;99.90
52709;DHT22;38606;52.986;6.980;2023-07-09T08:52:39;30.40;98.50
52709;DHT22;38606;52.986;6.980;2023-07-09T08:55:08;30.30;99.40
52709;DHT22;38606;52.986;6.980;2023-07-09T08:57:39;30.50;98.60
52709;DHT22;38606;52.986;6.980;2023-07-09T09:00:33;30.80;98.70
52709;DHT22;38606;52.986;6.980;2023-07-09T09:03:08;30.80;97.00
52709;DHT22;38606;52.986;6.980;2023-07-09T09:05:41;30.90;97.80
52709;DHT22;38606;52.986;6.980;2023-07-09T09:08:37;30.90;97.20
52709;DHT22;38606;52.986;6.980;2023-07-09T09:11:14;31.00;96.20
52709;DHT22;38606;52.986;6.980;2023-07-09T09:13:41;31.00;96.80
52709;DHT22;38606;52.986;6.980;2023-07-09T09:16:32;31.20;97.20
52709;DHT22;38606;52.986;6.980;2023-07-09T09:19:00;31.20;97.90
52709;DHT22;38606;52.986;6.980;2023-07-09T09:21:34;31.30;96.50
52709;DHT22;38606;52.986;6.980;2023-07-09T09:24:17;31.30;95.40
52709;DHT22;38606;52.986;6.980;2023-07-09T09:26:44;31.40;94.50
52709;DHT22;38606;52.986;6.980;2023-07-09T09:29:12;31.50;94.60
52709;DHT22;38606;52.986;6.980;2023-07-09T09:31:39;31.50;95.00
52709;DHT22;38606;52.986;6.980;2023-07-09T09:34:05;29.10;94.70
52709;DHT22;38606;52.986;6.980;2023-07-09T09:36:42;31.70;94.80
52709;DHT22;38606;52.986;6.980;2023-07-09T09:39:09;31.80;94.40
52709;DHT22;38606;52.986;6.980;2023-07-09T09:41:37;32.20;94.00
52709;DHT22;38606;52.986;6.980;2023-07-09T09:44:03;32.00;92.70
52709;DHT22;38606;52.986;6.980;2023-07-09T09:46:32;32.40;93.50
52709;DHT22;38606;52.986;6.980;2023-07-09T09:49:02;32.30;93.50
52709;DHT22;38606;52.986;6.980;2023-07-09T09:51:29;32.40;93.60
52709;DHT22;38606;52.986;6.980;2023-07-09T09:54:00;32.30;92.90
52709;DHT22;38606;52.986;6.980;2023-07-09T09:56:36;32.60;92.30
52709;DHT22;38606;52.986;6.980;2023-07-09T09:59:04;32.40;92.60
52709;DHT22;38606;52.986;6.980;2023-07-09T10:01:33;32.60;92.00
52709;DHT22;38606;52.986;6.980;2023-07-09T10:04:01;32.80;91.40
52709;DHT22;38606;52.986;6.980;2023-07-09T10:06:37;32.70;91.10
52709;DHT22;38606;52.986;6.980;2023-07-09T10:11:58;32.90;87.70
52709;DHT22;38606;52.986;6.980;2023-07-09T10:14:32;33.00;88.60
52709;DHT22;38606;52.986;6.980;2023-07-09T10:17:21;32.70;89.40
52709;DHT22;38606;52.986;6.980;2023-07-09T10:20:23;33.20;86.50
52709;DHT22;38606;52.986;6.980;2023-07-09T10:33:51;33.40;84.60
52709;DHT22;38606;52.986;6.980;2023-07-09T10:39:26;33.60;83.10
52709;DHT22;38606;52.986;6.980;2023-07-09T10:41:56;33.30;80.60
52709;DHT22;38606;52.986;6.980;2023-07-09T10:44:48;33.60;80.40
52709;DHT22;38606;52.986;6.980;2023-07-09T10:47:37;33.10;78.40
52709;DHT22;38606;52.986;6.980;2023-07-09T10:50:14;33.90;81.10
52709;DHT22;38606;52.986;6.980;2023-07-09T10:52:45;33.90;77.50
52709;DHT22;38606;52.986;6.980;2023-07-09T10:55:23;34.00;79.70
52709;DHT22;38606;52.986;6.980;2023-07-09T10:58:33;34.40;79.90
52709;DHT22;38606;52.986;6.980;2023-07-09T11:00:50;34.20;77.70
52709;DHT22;38606;52.986;6.980;2023-07-09T11:05:48;34.20;76.20
52709;DHT22;38606;52.986;6.980;2023-07-09T11:08:36;34.20;77.50
52709;DHT22;38606;52.986;6.980;2023-07-09T11:11:06;34.10;75.90
52709;DHT22;38606;52.986;6.980;2023-07-09T11:13:54;34.30;77.10
52709;DHT22;38606;52.986;6.980;2023-07-09T11:16:43;34.10;74.30
52709;DHT22;38606;52.986;6.980;2023-07-09T11:19:20;34.20;76.90
52709;DHT22;38606;52.986;6.980;2023-07-09T11:22:15;34.30;75.80
52709;DHT22;38606;52.986;6.980;2023-07-09T11:25:07;34.30;76.40
52709;DHT22;38606;52.986;6.980;2023-07-09T11:27:33;34.30;75.70
52709;DHT22;38606;52.986;6.980;2023-07-09T11:30:21;34.40;75.40
52709;DHT22;38606;52.986;6.980;2023-07-09T11:32:59;34.50;76.90
52709;DHT22;38606;52.986;6.980;2023-07-09T11:35:43;34.30;71.90
52709;DHT22;38606;52.986;6.980;2023-07-09T11:38:25;34.50;72.60
52709;DHT22;38606;52.986;6.980;2023-07-09T11:40:53;34.50;74.20
52709;DHT22;38606;52.986;6.980;2023-07-09T11:43:48;34.60;73.10
52709;DHT22;38606;52.986;6.980;2023-07-09T11:46:19;34.20;74.40
52709;DHT22;38606;52.986;6.980;2023-07-09T11:48:47;34.60;74.90
52709;DHT22;38606;52.986;6.980;2023-07-09T11:51:17;34.50;73.80
52709;DHT22;38606;52.986;6.980;2023-07-09T11:53:52;34.40;73.10
52709;DHT22;38606;52.986;6.980;2023-07-09T11:56:20;34.60;72.50
52709;DHT22;38606;52.986;6.980;2023-07-09T11:58:50;34.50;73.60
52709;DHT22;38606;52.986;6.980;2023-07-09T12:01:19;34.30;72.90
52709;DHT22;38606;52.986;6.980;2023-07-09T12:03:47;34.20;73.70
52709;DHT22;38606;52.986;6.980;2023-07-09T12:06:32;34.70;73.00
52709;DHT22;38606;52.986;6.980;2023-07-09T12:08:58;34.50;71.00
52709;DHT22;38606;52.986;6.980;2023-07-09T12:11:29;33.60;71.00
52709;DHT22;38606;52.986;6.980;2023-07-09T12:14:13;34.50;72.50
52709;DHT22;38606;52.986;6.980;2023-07-09T12:16:44;34.90;72.90
52709;DHT22;38606;52.986;6.980;2023-07-09T12:19:16;34.60;72.70
52709;DHT22;38606;52.986;6.980;2023-07-09T12:21:44;34.40;71.90
52709;DHT22;38606;52.986;6.980;2023-07-09T12:24:23;34.40;71.40
52709;DHT22;38606;52.986;6.980;2023-07-09T12:27:00;34.50;72.40
52709;DHT22;38606;52.986;6.980;2023-07-09T12:29:30;33.30;70.80
52709;DHT22;38606;52.986;6.980;2023-07-09T12:31:57;34.60;73.60
52709;DHT22;38606;52.986;6.980;2023-07-09T12:34:24;34.10;72.80
52709;DHT22;38606;52.986;6.980;2023-07-09T12:36:52;34.10;71.90
52709;DHT22;38606;52.986;6.980;2023-07-09T12:39:27;34.00;73.00
52709;DHT22;38606;52.986;6.980;2023-07-09T12:41:56;34.30;73.50
52709;DHT22;38606;52.986;6.980;2023-07-09T12:44:23;34.10;72.10
52709;DHT22;38606;52.986;6.980;2023-07-09T12:46:51;34.30;71.70
52709;DHT22;38606;52.986;6.980;2023-07-09T12:49:26;34.40;70.90
52709;DHT22;38606;52.986;6.980;2023-07-09T12:52:01;34.20;71.40
52709;DHT22;38606;52.986;6.980;2023-07-09T12:54:31;34.40;71.30
52709;DHT22;38606;52.986;6.980;2023-07-09T12:57:00;34.10;72.00
52709;DHT22;38606;52.986;6.980;2023-07-09T12:59:40;34.30;69.40
52709;DHT22;38606;52.986;6.980;2023-07-09T13:04:45;34.30;68.70
52709;DHT22;38606;52.986;6.980;2023-07-09T13:07:38;34.50;71.40
52709;DHT22;38606;52.986;6.980;2023-07-09T13:10:21;34.40;69.60
52709;DHT22;38606;52.986;6.980;2023-07-09T13:12:49;34.40;73.00
52709;DHT22;38606;52.986;6.980;2023-07-09T13:17:48;34.40;70.20
52709;DHT22;38606;52.986;6.980;2023-07-09T13:20:14;34.40;70.00
52709;DHT22;38606;52.986;6.980;2023-07-09T13:22:42;34.40;70.10
52709;DHT22;38606;52.986;6.980;2023-07-09T13:25:09;33.90;70.20
52709;DHT22;38606;52.986;6.980;2023-07-09T13:27:35;34.20;69.80
52709;DHT22;38606;52.986;6.980;2023-07-09T13:30:01;34.30;70.80
52709;DHT22;38606;52.986;6.980;2023-07-09T13:32:26;34.80;72.20
52709;DHT22;38606;52.986;6.980;2023-07-09T13:34:52;33.90;72.50
52709;DHT22;38606;52.986;6.980;2023-07-09T13:37:18;33.50;70.20
52709;DHT22;38606;52.986;6.980;2023-07-09T13:39:44;34.10;71.80
52709;DHT22;38606;52.986;6.980;2023-07-09T13:42:13;34.10;71.90
52709;DHT22;38606;52.986;6.980;2023-07-09T13:44:40;33.80;70.10
52709;DHT22;38606;52.986;6.980;2023-07-09T13:47:17;34.00;70.60
52709;DHT22;38606;52.986;6.980;2023-07-09T13:49:45;34.10;70.40
52709;DHT22;38606;52.986;6.980;2023-07-09T13:52:17;34.00;71.70
52709;DHT22;38606;52.986;6.980;2023-07-09T13:54:43;33.90;72.30
52709;DHT22;38606;52.986;6.980;2023-07-09T13:57:18;33.80;72.60
52709;DHT22;38606;52.986;6.980;2023-07-09T13:59:45;33.70;72.10
52709;DHT22;38606;52.986;6.980;2023-07-09T14:04:45;33.70;73.90
52709;DHT22;38606;52.986;6.980;2023-07-09T14:07:27;33.30;73.50
52709;DHT22;38606;52.986;6.980;2023-07-09T14:09:53;33.20;73.90
52709;DHT22;38606;52.986;6.980;2023-07-09T14:12:19;33.10;74.00
52709;DHT22;38606;52.986;6.980;2023-07-09T14:14:51;33.00;75.10
52709;DHT22;38606;52.986;6.980;2023-07-09T14:17:17;33.10;76.10
52709;DHT22;38606;52.986;6.980;2023-07-09T14:19:44;32.90;76.20
52709;DHT22;38606;52.986;6.980;2023-07-09T14:22:42;32.90;76.40
52709;DHT22;38606;52.986;6.980;2023-07-09T14:25:24;32.90;75.10
52709;DHT22;38606;52.986;6.980;2023-07-09T14:27:51;32.60;75.30
52709;DHT22;38606;52.986;6.980;2023-07-09T14:30:21;32.30;75.60
52709;DHT22;38606;52.986;6.980;2023-07-09T14:32:48;32.70;76.60
52709;DHT22;38606;52.986;6.980;2023-07-09T14:35:21;32.60;77.00
52709;DHT22;38606;52.986;6.980;2023-07-09T14:37:50;32.40;75.70
52709;DHT22;38606;52.986;6.980;2023-07-09T14:40:17;32.20;77.10
52709;DHT22;38606;52.986;6.980;2023-07-09T14:42:44;32.20;77.00
52709;DHT22;38606;52.986;6.980;2023-07-09T14:45:24;32.40;77.10
52709;DHT22;38606;52.986;6.980;2023-07-09T14:47:53;32.10;77.00
52709;DHT22;38606;52.986;6.980;2023-07-09T14:50:19;32.10;78.20
52709;DHT22;38606;52.986;6.980;2023-07-09T14:52:49;32.10;78.40
52709;DHT22;38606;52.986;6.980;2023-07-09T14:55:15;32.20;81.70
52709;DHT22;38606;52.986;6.980;2023-07-09T14:57:41;32.00;80.90
52709;DHT22;38606;52.986;6.980;2023-07-09T15:00:15;32.00;80.90
52709;DHT22;38606;52.986;6.980;2023-07-09T15:02:42;31.70;81.40
52709;DHT22;38606;52.986;6.980;2023-07-09T15:07:42;31.50;79.20
52709;DHT22;38606;52.986;6.980;2023-07-09T15:10:15;31.40;80.50
52709;DHT22;38606;52.986;6.980;2023-07-09T15:12:42;31.50;79.90
52709;DHT22;38606;52.986;6.980;2023-07-09T15:17:37;31.30;81.10
52709;DHT22;38606;52.986;6.980;2023-07-09T15:20:03;31.00;83.10
52709;DHT22;38606;52.986;6.980;2023-07-09T15:22:34;31.20;84.30
52709;DHT22;38606;52.986;6.980;2023-07-09T15:25:00;31.10;85.30
52709;DHT22;38606;52.986;6.980;2023-07-09T15:27:27;31.10;85.40
52709;DHT22;38606;52.986;6.980;2023-07-09T15:29:53;30.60;86.30
52709;DHT22;38606;52.986;6.980;2023-07-09T15:32:19;30.70;87.60
52709;DHT22;38606;52.986;6.980;2023-07-09T15:34:45;30.30;88.90
52709;DHT22;38606;52.986;6.980;2023-07-09T15:37:16;30.60;90.10
52709;DHT22;38606;52.986;6.980;2023-07-09T15:39:42;29.90;90.60
52709;DHT22;38606;52.986;6.980;2023-07-09T15:42:13;30.40;91.10
52709;DHT22;38606;52.986;6.980;2023-07-09T15:44:39;30.20;91.70
52709;DHT22;38606;52.986;6.980;2023-07-09T15:47:07;30.10;92.20
52709;DHT22;38606;52.986;6.980;2023-07-09T15:49:34;30.00;93.20
52709;DHT22;38606;52.986;6.980;2023-07-09T15:52:00;30.20;93.80
52709;DHT22;38606;52.986;6.980;2023-07-09T15:54:28;30.00;91.20
52709;DHT22;38606;52.986;6.980;2023-07-09T15:56:54;29.70;87.60
52709;DHT22;38606;52.986;6.980;2023-07-09T15:59:31;29.20;86.00
52709;DHT22;38606;52.986;6.980;2023-07-09T16:01:58;28.90;84.10
52709;DHT22;38606;52.986;6.980;2023-07-09T16:04:25;28.60;84.00
52709;DHT22;38606;52.986;6.980;2023-07-09T16:06:52;28.10;83.30
52709;DHT22;38606;52.986;6.980;2023-07-09T16:09:18;28.00;83.00
52709;DHT22;38606;52.986;6.980;2023-07-09T16:11:50;27.60;81.50
52709;DHT22;38606;52.986;6.980;2023-07-09T16:16:45;27.30;81.90
52709;DHT22;38606;52.986;6.980;2023-07-09T16:19:17;26.90;83.00
52709;DHT22;38606;52.986;6.980;2023-07-09T16:21:43;26.70;83.70
52709;DHT22;38606;52.986;6.980;2023-07-09T16:24:22;26.50;84.70
52709;DHT22;38606;52.986;6.980;2023-07-09T16:26:49;26.40;86.50
52709;DHT22;38606;52.986;6.980;2023-07-09T16:29:22;26.30;86.90